Ogden, UT (84415)

1:23 AM MDT on July 07, 2015 (GMT -0600)
Ogden 1422 | | Change Station
CLOSE
Current Station
Personal Weather Station
Location: Ogden, UT
Elevation: 4286 ft
Nearby Weather Stations

Elev 4286 ft 41.24 °N, 111.98 °W | Updated 3 minutes ago

Clear
Clear
72.7 °F
Feels Like 77 °F
N
3.0
Wind Variable Wind from SSE
Gusts 4.0 mph

Today
High -- | Low -- °F
--% Chance of Precip.
Yesterday
High -- | Low -- °F
Precip. -- in
6:02 AM 9:03 PM
Waning Gibbous, 67% visible
Pressure 29.88 in
Visibility 10.0 miles
Clouds Clear
Heat Index 77 °F
Dew Point 56 °F
Humidity 56%
Rainfall 0.00 in
Snow Depth Not available.
UV 0 out of 12
Pollen 2.50 out of 12
Air Quality Not available.
Flu Activity Not available.
METAR KOGD 070653Z AUTO 00000KT 10SM CLR 23/12 A3007 RMK AO2 SLP119 T02330117 403110183 TSNO

More Conditions Fewer Conditions

Pressure 29.88 in
Visibility 10.0 miles
Clouds Clear
Heat Index 77 °F
Dew Point 56 °F
Humidity 56%
Rainfall 0.00 in
Snow Depth Not available.
UV 0 out of 12
Pollen 2.50 out of 12
Air Quality Not available.
Flu Activity Not available.
METAR KOGD 070653Z AUTO 00000KT 10SM CLR 23/12 A3007 RMK AO2 SLP119 T02330117 403110183 TSNO

More Conditions Fewer Conditions

Nowcast | as of 11:10 PM MDT on July 6, 2015

Widely scattered showers and a few thunderstorms continue across parts of central and southern Utah and southwest Wyoming. At 11 PM the strongest storms were located south of Evanston...near Dugway...and near St George...moving southeast. Wind gusts up to 42 mph have recently been reported near the Tooele Valley. Expect cloud to ground lightning and gusty winds with this activity.

×

10-Day Weather Forecast

×

Almanac

Astronomy

Jul. 07, 2015 Rise Set
Actual Time
Civil Twilight
Nautical Twilight
Astronomical Twilight
Moon
Length of Visible Light
Length of Day
Tomorrow will be .
, % of the Moon is Illuminated

Today's Extremes

State Highs State Lows

Community

WunderPhotos

Upload Photos

1,835,756 photos uploaded!

WunderBlogs® & News

Nearby

Air Quality

  Air Quality AQ Index Pollutant
Not available.

Snow Depth

Station Depth Elevation

Earthquake Activity

City Distance Mag. Time & Date
Minimum magnitude displayed is 2.5.

Coastal Water Temperatures

Place Temperature

Stations

Nearby Weather Stations

Station Location Temp. Windchill Dew Point Humidity Wind Precip. Elev Updated Type